Merritt Island, Florida
Current Conditions -  °F | °C
As of 11:58 PM on Monday 20 Oct 2014 (Local Time) from KCOF Reporting Station
Clear Clear  
Wind Chill: 77°   Ceiling: Unl
Heat Index: 78°   Visibility: 10mi
Dew Point: 68°   Wind: 7mph
Humidity: 73%   Direction: 190°S
Pressure: 29.98"   Gusts: NA
Location:  28.36°N, 80.68°W
Report Text: KCOF 210358Z AUTO 19006KT 10SM CLR 25/20 A2998 RMK AO2 SLP156 T02490198 $
Loading
Personal Weather Stations






























Interactive Weather Map
Tropical Storm Tracking
New forecast layout! Learn more

10-Day Weather Forecast

Advertisements
Track Severe Weather on mobile